sensor_id;sensor_type;location;lat;lon;timestamp;P1;durP1;ratioP1;P2;durP2;ratioP2
15841;SDS011;8021;48.022;11.812;2023-08-31T00:01:31;0.30;;;0.30;;
15841;SDS011;8021;48.022;11.812;2023-08-31T00:03:59;0.30;;;0.30;;
15841;SDS011;8021;48.022;11.812;2023-08-31T00:06:27;0.32;;;0.32;;
15841;SDS011;8021;48.022;11.812;2023-08-31T00:08:54;0.30;;;0.30;;
15841;SDS011;8021;48.022;11.812;2023-08-31T00:11:23;0.30;;;0.30;;
15841;SDS011;8021;48.022;11.812;2023-08-31T00:13:52;0.30;;;0.30;;
15841;SDS011;8021;48.022;11.812;2023-08-31T00:16:23;0.30;;;0.20;;
15841;SDS011;8021;48.022;11.812;2023-08-31T00:18:51;0.25;;;0.20;;
15841;SDS011;8021;48.022;11.812;2023-08-31T00:21:19;0.30;;;0.30;;
15841;SDS011;8021;48.022;11.812;2023-08-31T00:23:46;0.30;;;0.30;;
15841;SDS011;8021;48.022;11.812;2023-08-31T00:26:14;0.38;;;0.38;;
15841;SDS011;8021;48.022;11.812;2023-08-31T00:28:46;0.30;;;0.30;;
15841;SDS011;8021;48.022;11.812;2023-08-31T00:31:15;0.30;;;0.30;;
15841;SDS011;8021;48.022;11.812;2023-08-31T00:33:43;0.30;;;0.30;;
15841;SDS011;8021;48.022;11.812;2023-08-31T00:36:10;0.30;;;0.30;;
15841;SDS011;8021;48.022;11.812;2023-08-31T00:38:38;0.30;;;0.30;;
15841;SDS011;8021;48.022;11.812;2023-08-31T00:41:07;0.30;;;0.30;;
15841;SDS011;8021;48.022;11.812;2023-08-31T00:43:35;0.30;;;0.30;;
15841;SDS011;8021;48.022;11.812;2023-08-31T00:46:04;0.30;;;0.30;;
15841;SDS011;8021;48.022;11.812;2023-08-31T00:48:31;0.30;;;0.30;;
15841;SDS011;8021;48.022;11.812;2023-08-31T00:50:59;0.30;;;0.30;;
15841;SDS011;8021;48.022;11.812;2023-08-31T00:53:27;0.30;;;0.30;;
15841;SDS011;8021;48.022;11.812;2023-08-31T00:55:56;0.30;;;0.30;;
15841;SDS011;8021;48.022;11.812;2023-08-31T00:58:25;0.30;;;0.30;;
15841;SDS011;8021;48.022;11.812;2023-08-31T01:00:57;0.30;;;0.28;;
15841;SDS011;8021;48.022;11.812;2023-08-31T01:03:29;0.30;;;0.30;;
15841;SDS011;8021;48.022;11.812;2023-08-31T01:06:01;0.32;;;0.32;;
15841;SDS011;8021;48.022;11.812;2023-08-31T01:08:33;0.30;;;0.30;;
15841;SDS011;8021;48.022;11.812;2023-08-31T01:11:06;0.30;;;0.30;;
15841;SDS011;8021;48.022;11.812;2023-08-31T01:13:35;0.30;;;0.30;;
15841;SDS011;8021;48.022;11.812;2023-08-31T01:16:05;0.30;;;0.30;;
15841;SDS011;8021;48.022;11.812;2023-08-31T01:18:35;0.30;;;0.30;;
15841;SDS011;8021;48.022;11.812;2023-08-31T01:21:06;0.22;;;0.22;;
15841;SDS011;8021;48.022;11.812;2023-08-31T01:23:51;0.30;;;0.30;;
15841;SDS011;8021;48.022;11.812;2023-08-31T01:26:19;0.30;;;0.30;;
15841;SDS011;8021;48.022;11.812;2023-08-31T01:28:49;0.30;;;0.20;;
15841;SDS011;8021;48.022;11.812;2023-08-31T01:31:17;0.30;;;0.30;;
15841;SDS011;8021;48.022;11.812;2023-08-31T01:33:46;0.30;;;0.22;;
15841;SDS011;8021;48.022;11.812;2023-08-31T01:36:17;0.30;;;0.30;;
15841;SDS011;8021;48.022;11.812;2023-08-31T01:38:47;0.30;;;0.25;;
15841;SDS011;8021;48.022;11.812;2023-08-31T01:41:17;0.30;;;0.28;;
15841;SDS011;8021;48.022;11.812;2023-08-31T01:43:46;0.30;;;0.30;;
15841;SDS011;8021;48.022;11.812;2023-08-31T01:46:15;0.30;;;0.30;;
15841;SDS011;8021;48.022;11.812;2023-08-31T01:48:47;0.30;;;0.30;;
15841;SDS011;8021;48.022;11.812;2023-08-31T01:51:16;0.30;;;0.30;;
15841;SDS011;8021;48.022;11.812;2023-08-31T01:53:43;0.35;;;0.35;;
15841;SDS011;8021;48.022;11.812;2023-08-31T01:56:11;0.40;;;0.40;;
15841;SDS011;8021;48.022;11.812;2023-08-31T01:58:41;0.30;;;0.30;;
15841;SDS011;8021;48.022;11.812;2023-08-31T02:01:09;0.30;;;0.30;;
15841;SDS011;8021;48.022;11.812;2023-08-31T02:03:38;0.30;;;0.30;;
15841;SDS011;8021;48.022;11.812;2023-08-31T02:06:06;0.30;;;0.30;;
15841;SDS011;8021;48.022;11.812;2023-08-31T02:08:34;0.30;;;0.25;;
15841;SDS011;8021;48.022;11.812;2023-08-31T02:11:01;0.30;;;0.30;;
15841;SDS011;8021;48.022;11.812;2023-08-31T02:13:29;0.40;;;0.40;;
15841;SDS011;8021;48.022;11.812;2023-08-31T02:15:58;0.30;;;0.30;;
15841;SDS011;8021;48.022;11.812;2023-08-31T02:18:26;0.20;;;0.20;;
15841;SDS011;8021;48.022;11.812;2023-08-31T02:20:54;0.38;;;0.38;;
15841;SDS011;8021;48.022;11.812;2023-08-31T02:23:22;0.30;;;0.30;;
15841;SDS011;8021;48.022;11.812;2023-08-31T02:25:49;0.30;;;0.30;;
15841;SDS011;8021;48.022;11.812;2023-08-31T02:28:17;0.30;;;0.30;;
15841;SDS011;8021;48.022;11.812;2023-08-31T02:30:46;0.30;;;0.30;;
15841;SDS011;8021;48.022;11.812;2023-08-31T02:33:15;0.30;;;0.30;;
15841;SDS011;8021;48.022;11.812;2023-08-31T02:35:42;0.30;;;0.30;;
15841;SDS011;8021;48.022;11.812;2023-08-31T02:38:10;0.30;;;0.30;;
15841;SDS011;8021;48.022;11.812;2023-08-31T02:40:39;0.30;;;0.20;;
15841;SDS011;8021;48.022;11.812;2023-08-31T02:43:07;0.30;;;0.30;;
15841;SDS011;8021;48.022;11.812;2023-08-31T02:45:35;0.30;;;0.20;;
15841;SDS011;8021;48.022;11.812;2023-08-31T02:48:03;0.20;;;0.20;;
15841;SDS011;8021;48.022;11.812;2023-08-31T02:50:34;0.20;;;0.20;;
15841;SDS011;8021;48.022;11.812;2023-08-31T02:53:02;0.30;;;0.30;;
15841;SDS011;8021;48.022;11.812;2023-08-31T02:55:31;0.30;;;0.25;;
15841;SDS011;8021;48.022;11.812;2023-08-31T02:57:59;0.20;;;0.20;;
15841;SDS011;8021;48.022;11.812;2023-08-31T03:00:27;0.30;;;0.20;;
15841;SDS011;8021;48.022;11.812;2023-08-31T03:02:54;0.38;;;0.38;;
15841;SDS011;8021;48.022;11.812;2023-08-31T03:05:22;0.30;;;0.25;;
15841;SDS011;8021;48.022;11.812;2023-08-31T03:07:51;0.30;;;0.30;;
15841;SDS011;8021;48.022;11.812;2023-08-31T03:10:20;0.30;;;0.20;;
15841;SDS011;8021;48.022;11.812;2023-08-31T03:12:48;0.30;;;0.20;;
15841;SDS011;8021;48.022;11.812;2023-08-31T03:15:15;0.30;;;0.20;;
15841;SDS011;8021;48.022;11.812;2023-08-31T03:17:43;0.30;;;0.30;;
15841;SDS011;8021;48.022;11.812;2023-08-31T03:20:10;0.30;;;0.30;;
15841;SDS011;8021;48.022;11.812;2023-08-31T03:22:38;0.30;;;0.30;;
15841;SDS011;8021;48.022;11.812;2023-08-31T03:25:07;0.30;;;0.30;;
15841;SDS011;8021;48.022;11.812;2023-08-31T03:27:35;0.30;;;0.20;;
15841;SDS011;8021;48.022;11.812;2023-08-31T03:30:03;0.30;;;0.30;;
15841;SDS011;8021;48.022;11.812;2023-08-31T03:32:30;0.30;;;0.20;;
15841;SDS011;8021;48.022;11.812;2023-08-31T03:34:58;0.30;;;0.30;;
15841;SDS011;8021;48.022;11.812;2023-08-31T03:37:26;0.30;;;0.30;;
15841;SDS011;8021;48.022;11.812;2023-08-31T03:39:55;0.30;;;0.28;;
15841;SDS011;8021;48.022;11.812;2023-08-31T03:42:24;0.30;;;0.20;;
15841;SDS011;8021;48.022;11.812;2023-08-31T03:44:51;0.30;;;0.30;;
15841;SDS011;8021;48.022;11.812;2023-08-31T03:47:19;0.30;;;0.30;;
15841;SDS011;8021;48.022;11.812;2023-08-31T03:49:46;0.30;;;0.30;;
15841;SDS011;8021;48.022;11.812;2023-08-31T03:52:14;0.30;;;0.20;;
15841;SDS011;8021;48.022;11.812;2023-08-31T03:54:41;0.20;;;0.20;;
15841;SDS011;8021;48.022;11.812;2023-08-31T03:57:09;0.30;;;0.28;;
15841;SDS011;8021;48.022;11.812;2023-08-31T03:59:38;0.30;;;0.20;;
15841;SDS011;8021;48.022;11.812;2023-08-31T04:02:05;0.32;;;0.32;;
15841;SDS011;8021;48.022;11.812;2023-08-31T04:04:33;0.30;;;0.25;;
15841;SDS011;8021;48.022;11.812;2023-08-31T04:07:00;0.30;;;0.30;;
15841;SDS011;8021;48.022;11.812;2023-08-31T04:09:31;0.30;;;0.30;;
15841;SDS011;8021;48.022;11.812;2023-08-31T04:11:58;0.30;;;0.20;;
15841;SDS011;8021;48.022;11.812;2023-08-31T04:14:29;0.30;;;0.30;;
15841;SDS011;8021;48.022;11.812;2023-08-31T04:16:58;0.30;;;0.30;;
15841;SDS011;8021;48.022;11.812;2023-08-31T04:19:26;0.30;;;0.30;;
15841;SDS011;8021;48.022;11.812;2023-08-31T04:21:53;0.30;;;0.30;;
15841;SDS011;8021;48.022;11.812;2023-08-31T04:24:20;0.25;;;0.25;;
15841;SDS011;8021;48.022;11.812;2023-08-31T04:26:48;0.30;;;0.30;;
15841;SDS011;8021;48.022;11.812;2023-08-31T04:29:17;0.30;;;0.28;;
15841;SDS011;8021;48.022;11.812;2023-08-31T04:31:45;0.20;;;0.20;;
15841;SDS011;8021;48.022;11.812;2023-08-31T04:34:13;0.30;;;0.30;;
15841;SDS011;8021;48.022;11.812;2023-08-31T04:36:41;0.30;;;0.20;;
15841;SDS011;8021;48.022;11.812;2023-08-31T04:39:09;0.22;;;0.22;;
15841;SDS011;8021;48.022;11.812;2023-08-31T04:42:01;0.30;;;0.30;;
15841;SDS011;8021;48.022;11.812;2023-08-31T04:44:29;0.30;;;0.30;;
15841;SDS011;8021;48.022;11.812;2023-08-31T04:46:56;0.30;;;0.30;;
15841;SDS011;8021;48.022;11.812;2023-08-31T04:49:25;0.30;;;0.30;;
15841;SDS011;8021;48.022;11.812;2023-08-31T04:51:53;0.30;;;0.20;;
15841;SDS011;8021;48.022;11.812;2023-08-31T04:54:20;0.35;;;0.35;;
15841;SDS011;8021;48.022;11.812;2023-08-31T04:56:47;0.30;;;0.30;;
15841;SDS011;8021;48.022;11.812;2023-08-31T04:59:15;0.20;;;0.20;;
15841;SDS011;8021;48.022;11.812;2023-08-31T05:01:42;0.40;;;0.40;;
15841;SDS011;8021;48.022;11.812;2023-08-31T05:04:10;0.30;;;0.20;;
15841;SDS011;8021;48.022;11.812;2023-08-31T05:06:39;0.30;;;0.20;;
15841;SDS011;8021;48.022;11.812;2023-08-31T05:09:06;0.30;;;0.30;;
15841;SDS011;8021;48.022;11.812;2023-08-31T05:11:34;0.30;;;0.30;;
15841;SDS011;8021;48.022;11.812;2023-08-31T05:14:01;0.30;;;0.25;;
15841;SDS011;8021;48.022;11.812;2023-08-31T05:16:29;0.30;;;0.20;;
15841;SDS011;8021;48.022;11.812;2023-08-31T05:18:57;0.30;;;0.30;;
15841;SDS011;8021;48.022;11.812;2023-08-31T05:21:24;0.30;;;0.30;;
15841;SDS011;8021;48.022;11.812;2023-08-31T05:23:53;0.20;;;0.20;;
15841;SDS011;8021;48.022;11.812;2023-08-31T05:26:21;0.30;;;0.30;;
15841;SDS011;8021;48.022;11.812;2023-08-31T05:28:48;0.30;;;0.30;;
15841;SDS011;8021;48.022;11.812;2023-08-31T05:31:40;0.20;;;0.20;;
15841;SDS011;8021;48.022;11.812;2023-08-31T05:34:09;0.30;;;0.20;;
15841;SDS011;8021;48.022;11.812;2023-08-31T05:36:36;0.30;;;0.20;;
15841;SDS011;8021;48.022;11.812;2023-08-31T05:39:05;0.30;;;0.30;;
15841;SDS011;8021;48.022;11.812;2023-08-31T05:41:32;0.20;;;0.20;;
15841;SDS011;8021;48.022;11.812;2023-08-31T05:44:00;0.20;;;0.20;;
15841;SDS011;8021;48.022;11.812;2023-08-31T05:46:28;0.20;;;0.20;;
15841;SDS011;8021;48.022;11.812;2023-08-31T05:48:55;0.30;;;0.20;;
15841;SDS011;8021;48.022;11.812;2023-08-31T05:51:23;0.30;;;0.20;;
15841;SDS011;8021;48.022;11.812;2023-08-31T05:53:50;0.30;;;0.20;;
15841;SDS011;8021;48.022;11.812;2023-08-31T05:56:19;0.20;;;0.20;;
15841;SDS011;8021;48.022;11.812;2023-08-31T05:58:47;0.20;;;0.20;;
15841;SDS011;8021;48.022;11.812;2023-08-31T06:01:16;0.20;;;0.20;;
15841;SDS011;8021;48.022;11.812;2023-08-31T06:03:44;0.20;;;0.20;;
15841;SDS011;8021;48.022;11.812;2023-08-31T06:06:11;0.30;;;0.30;;
15841;SDS011;8021;48.022;11.812;2023-08-31T06:08:39;0.20;;;0.10;;
15841;SDS011;8021;48.022;11.812;2023-08-31T06:11:08;0.30;;;0.28;;
15841;SDS011;8021;48.022;11.812;2023-08-31T06:13:38;0.20;;;0.20;;
15841;SDS011;8021;48.022;11.812;2023-08-31T06:16:06;0.30;;;0.20;;
15841;SDS011;8021;48.022;11.812;2023-08-31T06:18:33;0.30;;;0.30;;
15841;SDS011;8021;48.022;11.812;2023-08-31T06:21:01;0.30;;;0.20;;
15841;SDS011;8021;48.022;11.812;2023-08-31T06:23:28;0.20;;;0.20;;
15841;SDS011;8021;48.022;11.812;2023-08-31T06:25:56;0.28;;;0.20;;
15841;SDS011;8021;48.022;11.812;2023-08-31T06:28:23;0.30;;;0.30;;
15841;SDS011;8021;48.022;11.812;2023-08-31T06:30:53;0.28;;;0.20;;
15841;SDS011;8021;48.022;11.812;2023-08-31T06:33:20;0.30;;;0.20;;
15841;SDS011;8021;48.022;11.812;2023-08-31T06:35:48;0.20;;;0.20;;
15841;SDS011;8021;48.022;11.812;2023-08-31T06:38:17;0.30;;;0.20;;
15841;SDS011;8021;48.022;11.812;2023-08-31T06:40:46;0.30;;;0.20;;
15841;SDS011;8021;48.022;11.812;2023-08-31T06:43:13;0.30;;;0.20;;
15841;SDS011;8021;48.022;11.812;2023-08-31T06:45:41;0.30;;;0.20;;
15841;SDS011;8021;48.022;11.812;2023-08-31T06:48:10;0.30;;;0.20;;
15841;SDS011;8021;48.022;11.812;2023-08-31T06:50:37;0.30;;;0.30;;
15841;SDS011;8021;48.022;11.812;2023-08-31T06:53:05;0.20;;;0.20;;
15841;SDS011;8021;48.022;11.812;2023-08-31T06:55:33;0.25;;;0.20;;
15841;SDS011;8021;48.022;11.812;2023-08-31T06:58:00;0.30;;;0.20;;
15841;SDS011;8021;48.022;11.812;2023-08-31T07:00:28;0.20;;;0.20;;
15841;SDS011;8021;48.022;11.812;2023-08-31T07:02:56;0.20;;;0.20;;
15841;SDS011;8021;48.022;11.812;2023-08-31T07:05:25;0.30;;;0.30;;
15841;SDS011;8021;48.022;11.812;2023-08-31T07:07:54;0.20;;;0.20;;
15841;SDS011;8021;48.022;11.812;2023-08-31T07:10:22;0.20;;;0.20;;
15841;SDS011;8021;48.022;11.812;2023-08-31T07:12:50;0.20;;;0.20;;
15841;SDS011;8021;48.022;11.812;2023-08-31T07:15:17;0.20;;;0.20;;
15841;SDS011;8021;48.022;11.812;2023-08-31T07:17:45;0.20;;;0.17;;
15841;SDS011;8021;48.022;11.812;2023-08-31T07:20:12;0.20;;;0.20;;
15841;SDS011;8021;48.022;11.812;2023-08-31T07:22:41;0.20;;;0.20;;
15841;SDS011;8021;48.022;11.812;2023-08-31T07:25:09;0.20;;;0.20;;
15841;SDS011;8021;48.022;11.812;2023-08-31T07:27:36;0.20;;;0.20;;
15841;SDS011;8021;48.022;11.812;2023-08-31T07:30:04;0.20;;;0.20;;
15841;SDS011;8021;48.022;11.812;2023-08-31T07:32:32;0.20;;;0.20;;
15841;SDS011;8021;48.022;11.812;2023-08-31T07:35:00;0.30;;;0.20;;
15841;SDS011;8021;48.022;11.812;2023-08-31T07:37:31;0.20;;;0.20;;
15841;SDS011;8021;48.022;11.812;2023-08-31T07:39:59;0.20;;;0.20;;
15841;SDS011;8021;48.022;11.812;2023-08-31T07:42:27;0.30;;;0.30;;
15841;SDS011;8021;48.022;11.812;2023-08-31T07:44:55;0.20;;;0.20;;
15841;SDS011;8021;48.022;11.812;2023-08-31T07:47:23;0.30;;;0.25;;
15841;SDS011;8021;48.022;11.812;2023-08-31T07:49:50;0.30;;;0.30;;
15841;SDS011;8021;48.022;11.812;2023-08-31T07:52:18;0.30;;;0.25;;
15841;SDS011;8021;48.022;11.812;2023-08-31T07:54:46;0.20;;;0.20;;
15841;SDS011;8021;48.022;11.812;2023-08-31T07:57:14;0.30;;;0.20;;
15841;SDS011;8021;48.022;11.812;2023-08-31T07:59:42;0.30;;;0.20;;
15841;SDS011;8021;48.022;11.812;2023-08-31T08:02:09;0.20;;;0.20;;
15841;SDS011;8021;48.022;11.812;2023-08-31T08:04:37;0.30;;;0.30;;
15841;SDS011;8021;48.022;11.812;2023-08-31T08:07:05;0.20;;;0.20;;
15841;SDS011;8021;48.022;11.812;2023-08-31T08:09:32;0.30;;;0.20;;
15841;SDS011;8021;48.022;11.812;2023-08-31T08:12:00;0.20;;;0.20;;
15841;SDS011;8021;48.022;11.812;2023-08-31T08:14:29;0.20;;;0.20;;
15841;SDS011;8021;48.022;11.812;2023-08-31T08:16:56;0.20;;;0.20;;
15841;SDS011;8021;48.022;11.812;2023-08-31T08:19:24;0.20;;;0.20;;
15841;SDS011;8021;48.022;11.812;2023-08-31T08:21:51;0.20;;;0.20;;
15841;SDS011;8021;48.022;11.812;2023-08-31T08:24:19;0.20;;;0.20;;
15841;SDS011;8021;48.022;11.812;2023-08-31T08:26:46;0.20;;;0.10;;
15841;SDS011;8021;48.022;11.812;2023-08-31T08:29:14;0.20;;;0.20;;
15841;SDS011;8021;48.022;11.812;2023-08-31T08:31:43;0.20;;;0.20;;
15841;SDS011;8021;48.022;11.812;2023-08-31T08:34:10;0.20;;;0.20;;
15841;SDS011;8021;48.022;11.812;2023-08-31T08:36:38;0.10;;;0.10;;
15841;SDS011;8021;48.022;11.812;2023-08-31T08:39:05;0.10;;;0.10;;
15841;SDS011;8021;48.022;11.812;2023-08-31T08:41:33;0.10;;;0.10;;
15841;SDS011;8021;48.022;11.812;2023-08-31T08:44:02;0.10;;;0.10;;
15841;SDS011;8021;48.022;11.812;2023-08-31T08:46:30;0.10;;;0.10;;
15841;SDS011;8021;48.022;11.812;2023-08-31T08:49:02;0.10;;;0.10;;
15841;SDS011;8021;48.022;11.812;2023-08-31T08:51:31;0.20;;;0.10;;
15841;SDS011;8021;48.022;11.812;2023-08-31T08:53:59;0.20;;;0.20;;
15841;SDS011;8021;48.022;11.812;2023-08-31T08:56:27;0.20;;;0.20;;
15841;SDS011;8021;48.022;11.812;2023-08-31T08:58:54;0.10;;;0.10;;
15841;SDS011;8021;48.022;11.812;2023-08-31T09:01:22;0.10;;;0.10;;
15841;SDS011;8021;48.022;11.812;2023-08-31T09:03:51;0.20;;;0.20;;
15841;SDS011;8021;48.022;11.812;2023-08-31T09:06:20;0.10;;;0.10;;
15841;SDS011;8021;48.022;11.812;2023-08-31T09:08:53;0.10;;;0.10;;
15841;SDS011;8021;48.022;11.812;2023-08-31T09:11:21;0.20;;;0.20;;
15841;SDS011;8021;48.022;11.812;2023-08-31T09:13:49;0.13;;;0.10;;
15841;SDS011;8021;48.022;11.812;2023-08-31T09:16:24;0.20;;;0.10;;
15841;SDS011;8021;48.022;11.812;2023-08-31T09:18:52;0.17;;;0.17;;
15841;SDS011;8021;48.022;11.812;2023-08-31T09:21:22;0.20;;;0.10;;
15841;SDS011;8021;48.022;11.812;2023-08-31T09:23:55;0.20;;;0.20;;
15841;SDS011;8021;48.022;11.812;2023-08-31T09:26:23;0.28;;;0.20;;
15841;SDS011;8021;48.022;11.812;2023-08-31T09:28:51;0.20;;;0.20;;
15841;SDS011;8021;48.022;11.812;2023-08-31T09:31:18;0.20;;;0.20;;
15841;SDS011;8021;48.022;11.812;2023-08-31T09:33:50;0.20;;;0.20;;
15841;SDS011;8021;48.022;11.812;2023-08-31T09:36:19;0.20;;;0.20;;
15841;SDS011;8021;48.022;11.812;2023-08-31T09:38:49;0.20;;;0.20;;
15841;SDS011;8021;48.022;11.812;2023-08-31T09:41:16;0.30;;;0.20;;
15841;SDS011;8021;48.022;11.812;2023-08-31T09:43:44;0.20;;;0.20;;
15841;SDS011;8021;48.022;11.812;2023-08-31T09:46:12;0.30;;;0.20;;
15841;SDS011;8021;48.022;11.812;2023-08-31T09:48:41;0.20;;;0.10;;
15841;SDS011;8021;48.022;11.812;2023-08-31T09:51:10;0.20;;;0.20;;
15841;SDS011;8021;48.022;11.812;2023-08-31T09:53:37;0.20;;;0.10;;
15841;SDS011;8021;48.022;11.812;2023-08-31T09:56:06;0.10;;;0.10;;
15841;SDS011;8021;48.022;11.812;2023-08-31T09:58:34;0.20;;;0.20;;
15841;SDS011;8021;48.022;11.812;2023-08-31T10:01:02;0.20;;;0.20;;
15841;SDS011;8021;48.022;11.812;2023-08-31T10:04:03;0.10;;;0.10;;
15841;SDS011;8021;48.022;11.812;2023-08-31T10:06:32;0.10;;;0.10;;
15841;SDS011;8021;48.022;11.812;2023-08-31T10:08:59;0.10;;;0.10;;
15841;SDS011;8021;48.022;11.812;2023-08-31T10:11:29;0.10;;;0.10;;
15841;SDS011;8021;48.022;11.812;2023-08-31T10:13:58;0.10;;;0.10;;
15841;SDS011;8021;48.022;11.812;2023-08-31T10:16:26;0.10;;;0.10;;
15841;SDS011;8021;48.022;11.812;2023-08-31T10:18:54;0.10;;;0.10;;
15841;SDS011;8021;48.022;11.812;2023-08-31T10:21:22;0.20;;;0.20;;
15841;SDS011;8021;48.022;11.812;2023-08-31T10:23:50;0.10;;;0.10;;
15841;SDS011;8021;48.022;11.812;2023-08-31T10:26:24;0.10;;;0.10;;
15841;SDS011;8021;48.022;11.812;2023-08-31T10:28:53;0.10;;;0.10;;
15841;SDS011;8021;48.022;11.812;2023-08-31T10:31:21;0.10;;;0.10;;
15841;SDS011;8021;48.022;11.812;2023-08-31T10:33:54;0.10;;;0.10;;
15841;SDS011;8021;48.022;11.812;2023-08-31T10:36:34;0.10;;;0.10;;
15841;SDS011;8021;48.022;11.812;2023-08-31T10:39:05;0.20;;;0.20;;
15841;SDS011;8021;48.022;11.812;2023-08-31T10:41:33;0.10;;;0.10;;
15841;SDS011;8021;48.022;11.812;2023-08-31T10:44:18;0.10;;;0.10;;
15841;SDS011;8021;48.022;11.812;2023-08-31T10:46:46;0.17;;;0.17;;
15841;SDS011;8021;48.022;11.812;2023-08-31T10:49:14;0.10;;;0.10;;
15841;SDS011;8021;48.022;11.812;2023-08-31T10:51:42;0.20;;;0.20;;
15841;SDS011;8021;48.022;11.812;2023-08-31T10:54:10;0.20;;;0.20;;
15841;SDS011;8021;48.022;11.812;2023-08-31T10:56:52;0.10;;;0.10;;
15841;SDS011;8021;48.022;11.812;2023-08-31T10:59:22;0.10;;;0.10;;
15841;SDS011;8021;48.022;11.812;2023-08-31T11:01:53;0.20;;;0.20;;
15841;SDS011;8021;48.022;11.812;2023-08-31T11:06:49;0.20;;;0.20;;
15841;SDS011;8021;48.022;11.812;2023-08-31T11:09:18;0.10;;;0.10;;
15841;SDS011;8021;48.022;11.812;2023-08-31T11:11:46;0.10;;;0.10;;
15841;SDS011;8021;48.022;11.812;2023-08-31T11:14:14;0.10;;;0.10;;
15841;SDS011;8021;48.022;11.812;2023-08-31T11:16:43;0.10;;;0.10;;
15841;SDS011;8021;48.022;11.812;2023-08-31T11:19:12;0.20;;;0.20;;
15841;SDS011;8021;48.022;11.812;2023-08-31T11:21:39;0.10;;;0.10;;
15841;SDS011;8021;48.022;11.812;2023-08-31T11:24:07;0.10;;;0.10;;
15841;SDS011;8021;48.022;11.812;2023-08-31T11:26:35;0.13;;;0.13;;
15841;SDS011;8021;48.022;11.812;2023-08-31T11:29:05;0.10;;;0.10;;
15841;SDS011;8021;48.022;11.812;2023-08-31T11:31:37;0.20;;;0.20;;
15841;SDS011;8021;48.022;11.812;2023-08-31T11:34:07;0.10;;;0.10;;
15841;SDS011;8021;48.022;11.812;2023-08-31T11:36:39;0.20;;;0.20;;
15841;SDS011;8021;48.022;11.812;2023-08-31T11:39:07;0.13;;;0.13;;
15841;SDS011;8021;48.022;11.812;2023-08-31T11:41:36;0.10;;;0.10;;
15841;SDS011;8021;48.022;11.812;2023-08-31T11:44:07;0.10;;;0.10;;
15841;SDS011;8021;48.022;11.812;2023-08-31T11:46:36;0.10;;;0.10;;
15841;SDS011;8021;48.022;11.812;2023-08-31T11:49:04;0.10;;;0.10;;
15841;SDS011;8021;48.022;11.812;2023-08-31T11:51:34;0.10;;;0.10;;
15841;SDS011;8021;48.022;11.812;2023-08-31T11:54:01;0.15;;;0.15;;
15841;SDS011;8021;48.022;11.812;2023-08-31T11:56:38;0.10;;;0.10;;
15841;SDS011;8021;48.022;11.812;2023-08-31T11:59:07;0.10;;;0.10;;
15841;SDS011;8021;48.022;11.812;2023-08-31T12:01:37;0.10;;;0.10;;
15841;SDS011;8021;48.022;11.812;2023-08-31T12:04:09;0.10;;;0.10;;
15841;SDS011;8021;48.022;11.812;2023-08-31T12:06:39;0.10;;;0.10;;
15841;SDS011;8021;48.022;11.812;2023-08-31T12:09:07;0.20;;;0.20;;
15841;SDS011;8021;48.022;11.812;2023-08-31T12:11:34;0.15;;;0.15;;
15841;SDS011;8021;48.022;11.812;2023-08-31T12:14:02;0.10;;;0.10;;
15841;SDS011;8021;48.022;11.812;2023-08-31T12:16:33;0.10;;;0.10;;
15841;SDS011;8021;48.022;11.812;2023-08-31T12:19:03;0.10;;;0.10;;
15841;SDS011;8021;48.022;11.812;2023-08-31T12:21:31;0.20;;;0.20;;
15841;SDS011;8021;48.022;11.812;2023-08-31T12:24:00;0.10;;;0.10;;
15841;SDS011;8021;48.022;11.812;2023-08-31T12:26:30;0.10;;;0.10;;
15841;SDS011;8021;48.022;11.812;2023-08-31T12:28:58;0.20;;;0.20;;
15841;SDS011;8021;48.022;11.812;2023-08-31T12:31:25;0.20;;;0.20;;
15841;SDS011;8021;48.022;11.812;2023-08-31T12:33:53;0.20;;;0.13;;
15841;SDS011;8021;48.022;11.812;2023-08-31T12:36:20;0.10;;;0.10;;
15841;SDS011;8021;48.022;11.812;2023-08-31T12:38:48;0.13;;;0.10;;
15841;SDS011;8021;48.022;11.812;2023-08-31T12:41:17;0.20;;;0.20;;
15841;SDS011;8021;48.022;11.812;2023-08-31T12:43:49;0.10;;;0.10;;
15841;SDS011;8021;48.022;11.812;2023-08-31T12:46:16;0.20;;;0.20;;
15841;SDS011;8021;48.022;11.812;2023-08-31T12:48:44;0.10;;;0.10;;
15841;SDS011;8021;48.022;11.812;2023-08-31T12:51:11;0.17;;;0.17;;
15841;SDS011;8021;48.022;11.812;2023-08-31T12:53:39;0.15;;;0.15;;
15841;SDS011;8021;48.022;11.812;2023-08-31T12:56:06;0.10;;;0.10;;
15841;SDS011;8021;48.022;11.812;2023-08-31T12:58:36;0.10;;;0.10;;
15841;SDS011;8021;48.022;11.812;2023-08-31T13:01:03;0.13;;;0.10;;
15841;SDS011;8021;48.022;11.812;2023-08-31T13:03:31;0.15;;;0.15;;
15841;SDS011;8021;48.022;11.812;2023-08-31T13:05:58;0.10;;;0.10;;
15841;SDS011;8021;48.022;11.812;2023-08-31T13:08:26;0.10;;;0.10;;
15841;SDS011;8021;48.022;11.812;2023-08-31T13:10:53;0.20;;;0.20;;
15841;SDS011;8021;48.022;11.812;2023-08-31T13:13:21;0.13;;;0.13;;
15841;SDS011;8021;48.022;11.812;2023-08-31T13:15:50;0.10;;;0.10;;
15841;SDS011;8021;48.022;11.812;2023-08-31T13:18:17;0.10;;;0.10;;
15841;SDS011;8021;48.022;11.812;2023-08-31T13:20:48;0.10;;;0.10;;
15841;SDS011;8021;48.022;11.812;2023-08-31T13:23:16;0.10;;;0.10;;
15841;SDS011;8021;48.022;11.812;2023-08-31T13:25:44;0.10;;;0.10;;
15841;SDS011;8021;48.022;11.812;2023-08-31T13:28:12;0.10;;;0.10;;
15841;SDS011;8021;48.022;11.812;2023-08-31T13:30:40;0.15;;;0.15;;
15841;SDS011;8021;48.022;11.812;2023-08-31T13:33:10;0.20;;;0.20;;
15841;SDS011;8021;48.022;11.812;2023-08-31T13:35:37;0.10;;;0.10;;
15841;SDS011;8021;48.022;11.812;2023-08-31T13:38:06;0.17;;;0.17;;
15841;SDS011;8021;48.022;11.812;2023-08-31T13:40:34;0.17;;;0.17;;
15841;SDS011;8021;48.022;11.812;2023-08-31T13:43:02;0.13;;;0.13;;
15841;SDS011;8021;48.022;11.812;2023-08-31T13:45:30;0.10;;;0.10;;
15841;SDS011;8021;48.022;11.812;2023-08-31T13:47:58;0.17;;;0.17;;
15841;SDS011;8021;48.022;11.812;2023-08-31T13:50:28;0.10;;;0.10;;
15841;SDS011;8021;48.022;11.812;2023-08-31T13:52:56;0.10;;;0.10;;
15841;SDS011;8021;48.022;11.812;2023-08-31T13:55:24;0.10;;;0.10;;
15841;SDS011;8021;48.022;11.812;2023-08-31T13:57:52;0.10;;;0.10;;
15841;SDS011;8021;48.022;11.812;2023-08-31T14:00:20;0.10;;;0.10;;
15841;SDS011;8021;48.022;11.812;2023-08-31T14:02:47;0.10;;;0.10;;
15841;SDS011;8021;48.022;11.812;2023-08-31T14:05:15;0.10;;;0.10;;
15841;SDS011;8021;48.022;11.812;2023-08-31T14:07:44;0.20;;;0.20;;
15841;SDS011;8021;48.022;11.812;2023-08-31T14:10:11;0.20;;;0.20;;
15841;SDS011;8021;48.022;11.812;2023-08-31T14:12:39;0.17;;;0.17;;
15841;SDS011;8021;48.022;11.812;2023-08-31T14:15:06;0.20;;;0.20;;
15841;SDS011;8021;48.022;11.812;2023-08-31T14:17:34;0.10;;;0.10;;
15841;SDS011;8021;48.022;11.812;2023-08-31T14:20:02;0.20;;;0.20;;
15841;SDS011;8021;48.022;11.812;2023-08-31T14:22:33;0.20;;;0.20;;
15841;SDS011;8021;48.022;11.812;2023-08-31T14:25:03;0.20;;;0.20;;
15841;SDS011;8021;48.022;11.812;2023-08-31T14:27:30;0.20;;;0.20;;
15841;SDS011;8021;48.022;11.812;2023-08-31T14:29:58;0.10;;;0.10;;
15841;SDS011;8021;48.022;11.812;2023-08-31T14:32:25;0.10;;;0.10;;
15841;SDS011;8021;48.022;11.812;2023-08-31T14:34:53;0.20;;;0.20;;
15841;SDS011;8021;48.022;11.812;2023-08-31T14:37:21;0.20;;;0.20;;
15841;SDS011;8021;48.022;11.812;2023-08-31T14:39:48;0.20;;;0.20;;
15841;SDS011;8021;48.022;11.812;2023-08-31T14:42:17;0.20;;;0.20;;
15841;SDS011;8021;48.022;11.812;2023-08-31T14:44:46;0.20;;;0.10;;
15841;SDS011;8021;48.022;11.812;2023-08-31T14:47:15;0.10;;;0.10;;
15841;SDS011;8021;48.022;11.812;2023-08-31T14:49:43;0.20;;;0.17;;
15841;SDS011;8021;48.022;11.812;2023-08-31T14:52:10;0.20;;;0.20;;
15841;SDS011;8021;48.022;11.812;2023-08-31T14:54:38;0.10;;;0.10;;
15841;SDS011;8021;48.022;11.812;2023-08-31T14:57:05;0.20;;;0.20;;
15841;SDS011;8021;48.022;11.812;2023-08-31T14:59:34;0.10;;;0.10;;